sensor_id;sensor_type;location;lat;lon;timestamp;P1;durP1;ratioP1;P2;durP2;ratioP2
23561;SDS011;11959;49.418;8.728;2023-05-10T00:00:23;1.92;;;1.50;;
23561;SDS011;11959;49.418;8.728;2023-05-10T00:02:49;1.40;;;1.13;;
23561;SDS011;11959;49.418;8.728;2023-05-10T00:05:14;3.55;;;1.48;;
23561;SDS011;11959;49.418;8.728;2023-05-10T00:07:40;2.53;;;1.50;;
23561;SDS011;11959;49.418;8.728;2023-05-10T00:10:09;2.72;;;1.00;;
23561;SDS011;11959;49.418;8.728;2023-05-10T00:12:35;2.83;;;1.30;;
23561;SDS011;11959;49.418;8.728;2023-05-10T00:15:01;1.77;;;1.17;;
23561;SDS011;11959;49.418;8.728;2023-05-10T00:17:27;0.90;;;0.90;;
23561;SDS011;11959;49.418;8.728;2023-05-10T00:19:53;4.18;;;1.25;;
23561;SDS011;11959;49.418;8.728;2023-05-10T00:22:19;1.23;;;1.00;;
23561;SDS011;11959;49.418;8.728;2023-05-10T00:24:45;2.47;;;1.10;;
23561;SDS011;11959;49.418;8.728;2023-05-10T00:27:10;2.33;;;1.10;;
23561;SDS011;11959;49.418;8.728;2023-05-10T00:29:36;1.95;;;1.02;;
23561;SDS011;11959;49.418;8.728;2023-05-10T00:32:02;1.17;;;1.00;;
23561;SDS011;11959;49.418;8.728;2023-05-10T00:34:27;1.40;;;0.90;;
23561;SDS011;11959;49.418;8.728;2023-05-10T00:36:53;1.10;;;0.93;;
23561;SDS011;11959;49.418;8.728;2023-05-10T00:39:19;0.70;;;0.70;;
23561;SDS011;11959;49.418;8.728;2023-05-10T00:41:45;1.05;;;0.88;;
23561;SDS011;11959;49.418;8.728;2023-05-10T00:44:10;0.90;;;0.80;;
23561;SDS011;11959;49.418;8.728;2023-05-10T00:46:36;1.15;;;1.00;;
23561;SDS011;11959;49.418;8.728;2023-05-10T00:49:02;0.70;;;0.65;;
23561;SDS011;11959;49.418;8.728;2023-05-10T00:51:27;2.58;;;0.85;;
23561;SDS011;11959;49.418;8.728;2023-05-10T00:53:53;5.85;;;1.00;;
23561;SDS011;11959;49.418;8.728;2023-05-10T00:56:20;0.95;;;0.70;;
23561;SDS011;11959;49.418;8.728;2023-05-10T00:58:48;2.40;;;0.68;;
23561;SDS011;11959;49.418;8.728;2023-05-10T01:01:14;1.75;;;0.80;;
23561;SDS011;11959;49.418;8.728;2023-05-10T01:03:40;0.85;;;0.80;;
23561;SDS011;11959;49.418;8.728;2023-05-10T01:06:06;1.92;;;0.90;;
23561;SDS011;11959;49.418;8.728;2023-05-10T01:08:32;1.35;;;0.90;;
23561;SDS011;11959;49.418;8.728;2023-05-10T01:10:58;0.85;;;0.68;;
23561;SDS011;11959;49.418;8.728;2023-05-10T01:13:31;1.88;;;0.60;;
23561;SDS011;11959;49.418;8.728;2023-05-10T01:15:59;1.50;;;0.68;;
23561;SDS011;11959;49.418;8.728;2023-05-10T01:18:28;1.30;;;0.60;;
23561;SDS011;11959;49.418;8.728;2023-05-10T01:21:30;1.85;;;0.77;;
23561;SDS011;11959;49.418;8.728;2023-05-10T01:24:09;1.40;;;0.88;;
23561;SDS011;11959;49.418;8.728;2023-05-10T01:35:16;1.83;;;1.00;;
23561;SDS011;11959;49.418;8.728;2023-05-10T01:38:03;2.50;;;1.65;;
23561;SDS011;11959;49.418;8.728;2023-05-10T01:40:42;2.30;;;1.95;;
23561;SDS011;11959;49.418;8.728;2023-05-10T01:43:14;4.45;;;2.20;;
23561;SDS011;11959;49.418;8.728;2023-05-10T01:45:47;3.28;;;2.22;;
23561;SDS011;11959;49.418;8.728;2023-05-10T01:48:14;2.08;;;1.95;;
23561;SDS011;11959;49.418;8.728;2023-05-10T01:50:41;3.08;;;1.50;;
23561;SDS011;11959;49.418;8.728;2023-05-10T01:53:10;1.50;;;1.40;;
23561;SDS011;11959;49.418;8.728;2023-05-10T01:55:48;1.50;;;1.17;;
23561;SDS011;11959;49.418;8.728;2023-05-10T01:58:19;1.50;;;1.08;;
23561;SDS011;11959;49.418;8.728;2023-05-10T02:00:47;3.05;;;1.60;;
23561;SDS011;11959;49.418;8.728;2023-05-10T02:03:15;1.30;;;1.20;;
23561;SDS011;11959;49.418;8.728;2023-05-10T02:05:45;1.30;;;1.20;;
23561;SDS011;11959;49.418;8.728;2023-05-10T02:08:13;2.90;;;1.60;;
23561;SDS011;11959;49.418;8.728;2023-05-10T02:10:41;2.80;;;1.52;;
23561;SDS011;11959;49.418;8.728;2023-05-10T02:13:10;2.50;;;1.67;;
23561;SDS011;11959;49.418;8.728;2023-05-10T02:15:37;3.15;;;1.63;;
23561;SDS011;11959;49.418;8.728;2023-05-10T02:18:05;3.58;;;1.50;;
23561;SDS011;11959;49.418;8.728;2023-05-10T02:20:32;2.47;;;1.60;;
23561;SDS011;11959;49.418;8.728;2023-05-10T02:22:59;1.90;;;1.40;;
23561;SDS011;11959;49.418;8.728;2023-05-10T02:25:25;2.28;;;1.40;;
23561;SDS011;11959;49.418;8.728;2023-05-10T02:27:54;4.55;;;1.70;;
23561;SDS011;11959;49.418;8.728;2023-05-10T02:30:21;2.05;;;1.15;;
23561;SDS011;11959;49.418;8.728;2023-05-10T02:32:48;5.85;;;1.70;;
23561;SDS011;11959;49.418;8.728;2023-05-10T02:35:15;1.77;;;1.30;;
23561;SDS011;11959;49.418;8.728;2023-05-10T02:37:41;4.38;;;1.70;;
23561;SDS011;11959;49.418;8.728;2023-05-10T02:40:10;2.35;;;1.38;;
23561;SDS011;11959;49.418;8.728;2023-05-10T02:42:38;3.33;;;1.63;;
23561;SDS011;11959;49.418;8.728;2023-05-10T02:45:11;3.15;;;1.45;;
23561;SDS011;11959;49.418;8.728;2023-05-10T02:47:38;3.67;;;1.48;;
23561;SDS011;11959;49.418;8.728;2023-05-10T02:50:04;3.28;;;1.40;;
23561;SDS011;11959;49.418;8.728;2023-05-10T02:52:34;3.25;;;1.77;;
23561;SDS011;11959;49.418;8.728;2023-05-10T02:55:05;3.97;;;1.50;;
23561;SDS011;11959;49.418;8.728;2023-05-10T02:57:34;3.78;;;1.50;;
23561;SDS011;11959;49.418;8.728;2023-05-10T03:00:03;1.70;;;1.20;;
23561;SDS011;11959;49.418;8.728;2023-05-10T03:02:30;1.63;;;1.20;;
23561;SDS011;11959;49.418;8.728;2023-05-10T03:04:56;1.60;;;1.30;;
23561;SDS011;11959;49.418;8.728;2023-05-10T03:07:21;3.08;;;1.40;;
23561;SDS011;11959;49.418;8.728;2023-05-10T03:09:48;2.38;;;1.60;;
23561;SDS011;11959;49.418;8.728;2023-05-10T03:18:16;3.03;;;1.42;;
23561;SDS011;11959;49.418;8.728;2023-05-10T03:21:02;2.22;;;1.60;;
23561;SDS011;11959;49.418;8.728;2023-05-10T03:23:48;2.55;;;1.67;;
23561;SDS011;11959;49.418;8.728;2023-05-10T03:26:27;2.83;;;1.50;;
23561;SDS011;11959;49.418;8.728;2023-05-10T03:28:53;2.72;;;2.10;;
23561;SDS011;11959;49.418;8.728;2023-05-10T03:31:20;2.17;;;1.98;;
23561;SDS011;11959;49.418;8.728;2023-05-10T03:33:47;3.35;;;2.00;;
23561;SDS011;11959;49.418;8.728;2023-05-10T03:36:13;2.15;;;1.95;;
23561;SDS011;11959;49.418;8.728;2023-05-10T03:38:39;2.88;;;2.50;;
23561;SDS011;11959;49.418;8.728;2023-05-10T03:41:05;4.30;;;2.88;;
23561;SDS011;11959;49.418;8.728;2023-05-10T03:43:30;4.03;;;3.38;;
23561;SDS011;11959;49.418;8.728;2023-05-10T03:45:56;4.72;;;3.75;;
23561;SDS011;11959;49.418;8.728;2023-05-10T03:48:21;4.85;;;4.45;;
23561;SDS011;11959;49.418;8.728;2023-05-10T03:50:47;6.70;;;5.55;;
23561;SDS011;11959;49.418;8.728;2023-05-10T03:53:14;5.63;;;5.03;;
23561;SDS011;11959;49.418;8.728;2023-05-10T03:55:40;4.85;;;4.10;;
23561;SDS011;11959;49.418;8.728;2023-05-10T03:58:06;4.22;;;3.30;;
23561;SDS011;11959;49.418;8.728;2023-05-10T04:00:32;3.13;;;2.72;;
23561;SDS011;11959;49.418;8.728;2023-05-10T04:02:57;3.92;;;2.65;;
23561;SDS011;11959;49.418;8.728;2023-05-10T04:05:23;4.63;;;2.22;;
23561;SDS011;11959;49.418;8.728;2023-05-10T04:07:49;2.78;;;2.10;;
23561;SDS011;11959;49.418;8.728;2023-05-10T04:10:16;5.03;;;2.50;;
23561;SDS011;11959;49.418;8.728;2023-05-10T04:12:41;4.35;;;2.42;;
23561;SDS011;11959;49.418;8.728;2023-05-10T04:15:07;3.17;;;2.13;;
23561;SDS011;11959;49.418;8.728;2023-05-10T04:17:33;4.28;;;2.30;;
23561;SDS011;11959;49.418;8.728;2023-05-10T04:19:59;3.15;;;1.98;;
23561;SDS011;11959;49.418;8.728;2023-05-10T04:22:24;2.95;;;1.80;;
23561;SDS011;11959;49.418;8.728;2023-05-10T04:24:50;2.88;;;1.83;;
23561;SDS011;11959;49.418;8.728;2023-05-10T04:27:16;3.00;;;2.13;;
23561;SDS011;11959;49.418;8.728;2023-05-10T04:29:41;4.00;;;2.00;;
23561;SDS011;11959;49.418;8.728;2023-05-10T04:32:07;3.50;;;2.08;;
23561;SDS011;11959;49.418;8.728;2023-05-10T04:34:35;3.35;;;2.47;;
23561;SDS011;11959;49.418;8.728;2023-05-10T04:37:01;3.25;;;2.30;;
23561;SDS011;11959;49.418;8.728;2023-05-10T04:39:26;3.35;;;2.38;;
23561;SDS011;11959;49.418;8.728;2023-05-10T04:41:52;3.35;;;2.60;;
23561;SDS011;11959;49.418;8.728;2023-05-10T04:44:18;2.92;;;2.60;;
23561;SDS011;11959;49.418;8.728;2023-05-10T04:46:44;2.85;;;2.40;;
23561;SDS011;11959;49.418;8.728;2023-05-10T04:49:09;3.53;;;2.63;;
23561;SDS011;11959;49.418;8.728;2023-05-10T04:51:35;3.97;;;2.78;;
23561;SDS011;11959;49.418;8.728;2023-05-10T04:54:01;3.40;;;3.10;;
23561;SDS011;11959;49.418;8.728;2023-05-10T04:56:26;4.75;;;3.60;;
23561;SDS011;11959;49.418;8.728;2023-05-10T04:58:52;5.32;;;3.83;;
23561;SDS011;11959;49.418;8.728;2023-05-10T05:01:18;5.47;;;4.18;;
23561;SDS011;11959;49.418;8.728;2023-05-10T05:03:44;4.18;;;3.78;;
23561;SDS011;11959;49.418;8.728;2023-05-10T05:06:15;5.80;;;4.10;;
23561;SDS011;11959;49.418;8.728;2023-05-10T05:08:41;5.25;;;4.03;;
23561;SDS011;11959;49.418;8.728;2023-05-10T05:11:06;5.57;;;4.13;;
23561;SDS011;11959;49.418;8.728;2023-05-10T05:13:32;5.32;;;4.32;;
23561;SDS011;11959;49.418;8.728;2023-05-10T05:15:59;6.55;;;5.88;;
23561;SDS011;11959;49.418;8.728;2023-05-10T05:18:28;5.60;;;5.10;;
23561;SDS011;11959;49.418;8.728;2023-05-10T05:20:54;5.90;;;5.35;;
23561;SDS011;11959;49.418;8.728;2023-05-10T05:23:20;6.50;;;5.30;;
23561;SDS011;11959;49.418;8.728;2023-05-10T05:25:49;7.60;;;5.28;;
23561;SDS011;11959;49.418;8.728;2023-05-10T05:28:21;5.32;;;4.53;;
23561;SDS011;11959;49.418;8.728;2023-05-10T05:30:47;5.40;;;4.90;;
23561;SDS011;11959;49.418;8.728;2023-05-10T05:33:16;5.97;;;5.07;;
23561;SDS011;11959;49.418;8.728;2023-05-10T05:35:42;5.95;;;4.45;;
23561;SDS011;11959;49.418;8.728;2023-05-10T05:38:12;5.15;;;4.55;;
23561;SDS011;11959;49.418;8.728;2023-05-10T05:40:38;4.90;;;4.25;;
23561;SDS011;11959;49.418;8.728;2023-05-10T05:43:03;4.63;;;4.22;;
23561;SDS011;11959;49.418;8.728;2023-05-10T05:45:29;5.00;;;4.50;;
23561;SDS011;11959;49.418;8.728;2023-05-10T05:47:55;6.45;;;4.22;;
23561;SDS011;11959;49.418;8.728;2023-05-10T05:50:21;4.82;;;4.32;;
23561;SDS011;11959;49.418;8.728;2023-05-10T05:52:47;4.60;;;4.07;;
23561;SDS011;11959;49.418;8.728;2023-05-10T05:55:13;5.60;;;4.55;;
23561;SDS011;11959;49.418;8.728;2023-05-10T05:57:38;6.30;;;4.50;;
23561;SDS011;11959;49.418;8.728;2023-05-10T06:00:04;5.40;;;4.78;;
23561;SDS011;11959;49.418;8.728;2023-05-10T06:02:30;4.50;;;4.10;;
23561;SDS011;11959;49.418;8.728;2023-05-10T06:04:56;5.00;;;3.75;;
23561;SDS011;11959;49.418;8.728;2023-05-10T06:07:22;5.50;;;4.47;;
23561;SDS011;11959;49.418;8.728;2023-05-10T06:09:48;4.90;;;3.47;;
23561;SDS011;11959;49.418;8.728;2023-05-10T06:12:13;5.50;;;3.83;;
23561;SDS011;11959;49.418;8.728;2023-05-10T06:14:39;5.57;;;3.88;;
23561;SDS011;11959;49.418;8.728;2023-05-10T06:17:05;5.70;;;3.78;;
23561;SDS011;11959;49.418;8.728;2023-05-10T06:19:31;4.80;;;4.20;;
23561;SDS011;11959;49.418;8.728;2023-05-10T06:21:57;4.82;;;4.35;;
23561;SDS011;11959;49.418;8.728;2023-05-10T06:24:23;5.30;;;3.67;;
23561;SDS011;11959;49.418;8.728;2023-05-10T06:26:49;5.95;;;4.10;;
23561;SDS011;11959;49.418;8.728;2023-05-10T06:29:15;5.35;;;4.65;;
23561;SDS011;11959;49.418;8.728;2023-05-10T06:31:41;4.78;;;3.92;;
23561;SDS011;11959;49.418;8.728;2023-05-10T06:34:06;5.45;;;4.25;;
23561;SDS011;11959;49.418;8.728;2023-05-10T06:36:33;6.00;;;4.80;;
23561;SDS011;11959;49.418;8.728;2023-05-10T06:38:59;4.80;;;4.10;;
23561;SDS011;11959;49.418;8.728;2023-05-10T06:41:24;5.22;;;4.35;;
23561;SDS011;11959;49.418;8.728;2023-05-10T06:43:50;4.80;;;4.35;;
23561;SDS011;11959;49.418;8.728;2023-05-10T06:46:18;4.90;;;3.70;;
23561;SDS011;11959;49.418;8.728;2023-05-10T06:48:44;4.10;;;3.70;;
23561;SDS011;11959;49.418;8.728;2023-05-10T06:51:10;5.20;;;3.55;;
23561;SDS011;11959;49.418;8.728;2023-05-10T06:53:35;4.50;;;4.10;;
23561;SDS011;11959;49.418;8.728;2023-05-10T06:56:01;5.25;;;4.55;;
23561;SDS011;11959;49.418;8.728;2023-05-10T06:58:28;5.68;;;4.50;;
23561;SDS011;11959;49.418;8.728;2023-05-10T07:00:53;5.25;;;4.15;;
23561;SDS011;11959;49.418;8.728;2023-05-10T07:03:19;4.63;;;4.18;;
23561;SDS011;11959;49.418;8.728;2023-05-10T07:05:45;4.80;;;4.22;;
23561;SDS011;11959;49.418;8.728;2023-05-10T07:08:10;5.15;;;3.55;;
23561;SDS011;11959;49.418;8.728;2023-05-10T07:10:36;6.43;;;3.92;;
23561;SDS011;11959;49.418;8.728;2023-05-10T07:13:02;4.13;;;3.70;;
23561;SDS011;11959;49.418;8.728;2023-05-10T07:15:27;3.58;;;3.03;;
23561;SDS011;11959;49.418;8.728;2023-05-10T07:17:53;3.45;;;3.13;;
23561;SDS011;11959;49.418;8.728;2023-05-10T07:20:19;2.90;;;2.40;;
23561;SDS011;11959;49.418;8.728;2023-05-10T07:22:44;3.58;;;2.70;;
23561;SDS011;11959;49.418;8.728;2023-05-10T07:25:10;3.22;;;2.50;;
23561;SDS011;11959;49.418;8.728;2023-05-10T07:27:36;3.90;;;3.10;;
23561;SDS011;11959;49.418;8.728;2023-05-10T07:30:01;3.80;;;2.60;;
23561;SDS011;11959;49.418;8.728;2023-05-10T07:32:27;3.72;;;3.35;;
23561;SDS011;11959;49.418;8.728;2023-05-10T07:34:53;5.13;;;3.63;;
23561;SDS011;11959;49.418;8.728;2023-05-10T07:37:18;7.78;;;3.83;;
23561;SDS011;11959;49.418;8.728;2023-05-10T07:39:44;5.20;;;3.67;;
23561;SDS011;11959;49.418;8.728;2023-05-10T07:42:10;4.40;;;3.60;;
23561;SDS011;11959;49.418;8.728;2023-05-10T07:44:35;5.10;;;4.00;;
23561;SDS011;11959;49.418;8.728;2023-05-10T07:47:01;5.47;;;3.80;;
23561;SDS011;11959;49.418;8.728;2023-05-10T07:49:27;5.00;;;3.10;;
23561;SDS011;11959;49.418;8.728;2023-05-10T07:51:52;4.28;;;3.47;;
23561;SDS011;11959;49.418;8.728;2023-05-10T07:54:18;5.90;;;3.63;;
23561;SDS011;11959;49.418;8.728;2023-05-10T07:56:44;6.55;;;3.65;;
23561;SDS011;11959;49.418;8.728;2023-05-10T07:59:16;5.75;;;3.53;;
23561;SDS011;11959;49.418;8.728;2023-05-10T08:01:42;8.52;;;4.03;;
23561;SDS011;11959;49.418;8.728;2023-05-10T08:04:08;4.47;;;3.10;;
23561;SDS011;11959;49.418;8.728;2023-05-10T08:06:33;3.85;;;3.00;;
23561;SDS011;11959;49.418;8.728;2023-05-10T08:08:59;5.25;;;3.30;;
23561;SDS011;11959;49.418;8.728;2023-05-10T08:11:25;3.67;;;2.88;;
23561;SDS011;11959;49.418;8.728;2023-05-10T08:13:52;3.80;;;2.50;;
23561;SDS011;11959;49.418;8.728;2023-05-10T08:16:19;5.40;;;2.92;;
23561;SDS011;11959;49.418;8.728;2023-05-10T08:18:45;3.83;;;2.67;;
23561;SDS011;11959;49.418;8.728;2023-05-10T08:21:12;3.38;;;2.75;;
23561;SDS011;11959;49.418;8.728;2023-05-10T08:23:38;4.65;;;3.15;;
23561;SDS011;11959;49.418;8.728;2023-05-10T08:26:04;4.88;;;2.65;;
23561;SDS011;11959;49.418;8.728;2023-05-10T08:28:30;3.65;;;2.25;;
23561;SDS011;11959;49.418;8.728;2023-05-10T08:30:56;3.67;;;2.03;;
23561;SDS011;11959;49.418;8.728;2023-05-10T08:33:21;4.65;;;2.20;;
23561;SDS011;11959;49.418;8.728;2023-05-10T08:35:47;2.42;;;2.10;;
23561;SDS011;11959;49.418;8.728;2023-05-10T08:38:13;4.53;;;2.25;;
23561;SDS011;11959;49.418;8.728;2023-05-10T08:40:42;3.28;;;2.20;;
23561;SDS011;11959;49.418;8.728;2023-05-10T08:43:09;3.78;;;2.20;;
23561;SDS011;11959;49.418;8.728;2023-05-10T08:45:37;3.88;;;1.90;;
23561;SDS011;11959;49.418;8.728;2023-05-10T08:48:06;2.83;;;1.90;;
23561;SDS011;11959;49.418;8.728;2023-05-10T08:50:33;3.05;;;1.83;;
23561;SDS011;11959;49.418;8.728;2023-05-10T08:53:03;2.90;;;2.08;;
23561;SDS011;11959;49.418;8.728;2023-05-10T08:55:31;1.83;;;1.58;;
23561;SDS011;11959;49.418;8.728;2023-05-10T08:57:58;2.47;;;1.80;;
23561;SDS011;11959;49.418;8.728;2023-05-10T09:00:26;2.83;;;1.58;;
23561;SDS011;11959;49.418;8.728;2023-05-10T09:02:53;2.25;;;1.90;;
23561;SDS011;11959;49.418;8.728;2023-05-10T09:05:19;4.18;;;1.73;;
23561;SDS011;11959;49.418;8.728;2023-05-10T09:07:44;2.35;;;1.63;;
23561;SDS011;11959;49.418;8.728;2023-05-10T09:10:11;4.70;;;2.10;;
23561;SDS011;11959;49.418;8.728;2023-05-10T09:12:38;2.00;;;1.80;;
23561;SDS011;11959;49.418;8.728;2023-05-10T09:15:05;2.88;;;1.67;;
23561;SDS011;11959;49.418;8.728;2023-05-10T09:17:32;2.75;;;1.70;;
23561;SDS011;11959;49.418;8.728;2023-05-10T09:19:58;2.75;;;1.80;;
23561;SDS011;11959;49.418;8.728;2023-05-10T09:22:25;2.90;;;1.70;;
23561;SDS011;11959;49.418;8.728;2023-05-10T09:25:07;4.57;;;1.70;;
23561;SDS011;11959;49.418;8.728;2023-05-10T09:27:37;1.70;;;1.58;;
23561;SDS011;11959;49.418;8.728;2023-05-10T09:30:09;2.20;;;1.60;;
23561;SDS011;11959;49.418;8.728;2023-05-10T09:32:39;2.45;;;1.50;;
23561;SDS011;11959;49.418;8.728;2023-05-10T09:37:40;3.30;;;1.52;;
23561;SDS011;11959;49.418;8.728;2023-05-10T09:40:18;1.63;;;1.25;;
23561;SDS011;11959;49.418;8.728;2023-05-10T09:45:29;1.52;;;1.10;;
23561;SDS011;11959;49.418;8.728;2023-05-10T09:47:56;3.30;;;1.17;;
23561;SDS011;11959;49.418;8.728;2023-05-10T09:50:23;2.20;;;1.70;;
23561;SDS011;11959;49.418;8.728;2023-05-10T09:52:53;3.78;;;1.85;;
23561;SDS011;11959;49.418;8.728;2023-05-10T09:55:40;3.33;;;1.70;;
23561;SDS011;11959;49.418;8.728;2023-05-10T09:58:09;1.92;;;1.60;;
23561;SDS011;11959;49.418;8.728;2023-05-10T10:00:36;2.90;;;1.48;;
23561;SDS011;11959;49.418;8.728;2023-05-10T10:03:03;4.78;;;1.40;;
23561;SDS011;11959;49.418;8.728;2023-05-10T10:08:04;3.35;;;1.42;;
23561;SDS011;11959;49.418;8.728;2023-05-10T10:10:31;3.80;;;1.20;;
23561;SDS011;11959;49.418;8.728;2023-05-10T10:12:58;2.08;;;1.17;;
23561;SDS011;11959;49.418;8.728;2023-05-10T10:15:24;2.22;;;1.20;;
23561;SDS011;11959;49.418;8.728;2023-05-10T10:17:51;1.23;;;0.93;;
23561;SDS011;11959;49.418;8.728;2023-05-10T10:20:17;1.35;;;0.88;;
23561;SDS011;11959;49.418;8.728;2023-05-10T10:22:45;1.33;;;1.10;;
23561;SDS011;11959;49.418;8.728;2023-05-10T10:25:11;1.73;;;1.15;;
23561;SDS011;11959;49.418;8.728;2023-05-10T10:30:24;1.67;;;1.20;;
23561;SDS011;11959;49.418;8.728;2023-05-10T10:35:28;2.22;;;1.23;;
23561;SDS011;11959;49.418;8.728;2023-05-10T10:37:55;1.63;;;1.10;;
23561;SDS011;11959;49.418;8.728;2023-05-10T10:40:28;1.73;;;1.10;;
23561;SDS011;11959;49.418;8.728;2023-05-10T10:42:56;2.17;;;0.98;;
23561;SDS011;11959;49.418;8.728;2023-05-10T10:45:24;2.20;;;1.20;;
23561;SDS011;11959;49.418;8.728;2023-05-10T10:50:46;1.88;;;1.20;;
23561;SDS011;11959;49.418;8.728;2023-05-10T10:53:12;2.33;;;0.93;;
23561;SDS011;11959;49.418;8.728;2023-05-10T10:55:47;1.17;;;0.90;;
23561;SDS011;11959;49.418;8.728;2023-05-10T10:58:28;1.60;;;1.05;;
23561;SDS011;11959;49.418;8.728;2023-05-10T11:03:41;2.25;;;1.05;;
23561;SDS011;11959;49.418;8.728;2023-05-10T11:06:32;2.15;;;1.27;;
23561;SDS011;11959;49.418;8.728;2023-05-10T11:08:59;1.33;;;1.10;;
23561;SDS011;11959;49.418;8.728;2023-05-10T11:11:35;4.57;;;1.13;;
23561;SDS011;11959;49.418;8.728;2023-05-10T11:14:13;4.20;;;0.93;;
23561;SDS011;11959;49.418;8.728;2023-05-10T11:16:42;2.30;;;1.27;;
23561;SDS011;11959;49.418;8.728;2023-05-10T11:19:10;2.05;;;1.20;;
23561;SDS011;11959;49.418;8.728;2023-05-10T11:24:20;2.45;;;0.95;;
23561;SDS011;11959;49.418;8.728;2023-05-10T11:26:49;1.73;;;1.13;;
23561;SDS011;11959;49.418;8.728;2023-05-10T11:29:17;2.35;;;1.30;;
23561;SDS011;11959;49.418;8.728;2023-05-10T11:31:48;1.50;;;1.20;;
23561;SDS011;11959;49.418;8.728;2023-05-10T11:34:27;2.17;;;1.27;;
23561;SDS011;11959;49.418;8.728;2023-05-10T11:37:00;1.55;;;1.17;;
23561;SDS011;11959;49.418;8.728;2023-05-10T11:39:30;1.95;;;1.20;;
23561;SDS011;11959;49.418;8.728;2023-05-10T11:41:56;2.90;;;1.17;;
23561;SDS011;11959;49.418;8.728;2023-05-10T11:44:23;1.92;;;1.27;;
23561;SDS011;11959;49.418;8.728;2023-05-10T11:46:53;3.47;;;1.27;;
23561;SDS011;11959;49.418;8.728;2023-05-10T11:49:19;1.95;;;1.30;;
23561;SDS011;11959;49.418;8.728;2023-05-10T11:51:48;1.65;;;1.25;;
23561;SDS011;11959;49.418;8.728;2023-05-10T11:54:14;2.45;;;1.02;;
23561;SDS011;11959;49.418;8.728;2023-05-10T11:56:40;2.17;;;0.75;;
23561;SDS011;11959;49.418;8.728;2023-05-10T11:59:06;1.48;;;0.90;;
23561;SDS011;11959;49.418;8.728;2023-05-10T12:01:33;0.95;;;0.60;;
23561;SDS011;11959;49.418;8.728;2023-05-10T12:03:59;2.35;;;0.70;;
23561;SDS011;11959;49.418;8.728;2023-05-10T12:06:30;0.80;;;0.70;;
23561;SDS011;11959;49.418;8.728;2023-05-10T12:08:57;2.25;;;0.80;;
23561;SDS011;11959;49.418;8.728;2023-05-10T12:11:27;1.90;;;0.60;;
23561;SDS011;11959;49.418;8.728;2023-05-10T12:13:53;0.95;;;0.77;;
23561;SDS011;11959;49.418;8.728;2023-05-10T12:16:24;1.52;;;0.63;;
23561;SDS011;11959;49.418;8.728;2023-05-10T12:18:55;1.85;;;0.70;;
23561;SDS011;11959;49.418;8.728;2023-05-10T12:21:22;1.13;;;0.60;;
23561;SDS011;11959;49.418;8.728;2023-05-10T12:23:49;2.03;;;0.90;;
23561;SDS011;11959;49.418;8.728;2023-05-10T12:26:16;2.22;;;0.68;;
23561;SDS011;11959;49.418;8.728;2023-05-10T12:28:42;2.33;;;0.60;;
23561;SDS011;11959;49.418;8.728;2023-05-10T12:31:08;2.75;;;0.80;;
23561;SDS011;11959;49.418;8.728;2023-05-10T12:33:37;2.03;;;0.80;;
23561;SDS011;11959;49.418;8.728;2023-05-10T12:36:10;4.57;;;1.40;;
23561;SDS011;11959;49.418;8.728;2023-05-10T12:38:44;2.42;;;0.90;;
23561;SDS011;11959;49.418;8.728;2023-05-10T12:41:14;1.95;;;1.00;;
23561;SDS011;11959;49.418;8.728;2023-05-10T12:43:43;2.70;;;0.88;;
23561;SDS011;11959;49.418;8.728;2023-05-10T12:46:14;3.25;;;1.15;;
23561;SDS011;11959;49.418;8.728;2023-05-10T12:48:42;2.13;;;1.05;;
23561;SDS011;11959;49.418;8.728;2023-05-10T12:51:10;2.92;;;1.10;;
23561;SDS011;11959;49.418;8.728;2023-05-10T12:53:38;2.78;;;1.15;;
23561;SDS011;11959;49.418;8.728;2023-05-10T12:56:04;4.97;;;1.10;;
23561;SDS011;11959;49.418;8.728;2023-05-10T12:58:30;2.63;;;1.10;;
23561;SDS011;11959;49.418;8.728;2023-05-10T13:00:57;3.67;;;1.02;;
23561;SDS011;11959;49.418;8.728;2023-05-10T13:03:23;3.45;;;1.33;;
23561;SDS011;11959;49.418;8.728;2023-05-10T13:05:49;2.15;;;0.95;;
23561;SDS011;11959;49.418;8.728;2023-05-10T13:08:15;4.25;;;1.17;;
23561;SDS011;11959;49.418;8.728;2023-05-10T13:10:40;2.88;;;0.88;;
23561;SDS011;11959;49.418;8.728;2023-05-10T13:13:06;3.75;;;0.93;;
23561;SDS011;11959;49.418;8.728;2023-05-10T13:15:33;3.75;;;1.00;;
23561;SDS011;11959;49.418;8.728;2023-05-10T13:17:59;2.28;;;0.82;;
23561;SDS011;11959;49.418;8.728;2023-05-10T13:20:25;1.70;;;0.90;;
23561;SDS011;11959;49.418;8.728;2023-05-10T13:22:50;3.88;;;1.17;;
23561;SDS011;11959;49.418;8.728;2023-05-10T13:25:16;2.60;;;0.90;;
23561;SDS011;11959;49.418;8.728;2023-05-10T13:27:42;2.58;;;0.80;;
23561;SDS011;11959;49.418;8.728;2023-05-10T13:30:08;2.92;;;1.00;;
23561;SDS011;11959;49.418;8.728;2023-05-10T13:32:34;1.77;;;0.85;;
23561;SDS011;11959;49.418;8.728;2023-05-10T13:35:00;0.95;;;0.73;;
23561;SDS011;11959;49.418;8.728;2023-05-10T13:37:28;2.17;;;0.80;;
23561;SDS011;11959;49.418;8.728;2023-05-10T13:39:54;2.35;;;1.08;;
23561;SDS011;11959;49.418;8.728;2023-05-10T13:42:21;2.47;;;0.85;;
23561;SDS011;11959;49.418;8.728;2023-05-10T13:44:49;3.35;;;0.82;;
23561;SDS011;11959;49.418;8.728;2023-05-10T13:47:15;1.33;;;0.63;;
23561;SDS011;11959;49.418;8.728;2023-05-10T13:49:41;3.75;;;0.68;;
23561;SDS011;11959;49.418;8.728;2023-05-10T13:52:07;1.98;;;0.68;;
23561;SDS011;11959;49.418;8.728;2023-05-10T13:54:34;3.95;;;0.70;;
23561;SDS011;11959;49.418;8.728;2023-05-10T13:57:03;0.90;;;0.60;;
23561;SDS011;11959;49.418;8.728;2023-05-10T13:59:29;1.77;;;0.68;;
23561;SDS011;11959;49.418;8.728;2023-05-10T14:01:56;1.70;;;0.70;;
23561;SDS011;11959;49.418;8.728;2023-05-10T14:04:23;1.38;;;0.47;;
23561;SDS011;11959;49.418;8.728;2023-05-10T14:06:49;2.22;;;0.73;;
23561;SDS011;11959;49.418;8.728;2023-05-10T14:09:14;1.55;;;0.63;;
23561;SDS011;11959;49.418;8.728;2023-05-10T14:11:40;0.98;;;0.70;;
23561;SDS011;11959;49.418;8.728;2023-05-10T14:14:08;1.88;;;0.70;;
23561;SDS011;11959;49.418;8.728;2023-05-10T14:16:34;1.75;;;0.50;;
23561;SDS011;11959;49.418;8.728;2023-05-10T14:19:00;2.30;;;0.77;;
23561;SDS011;11959;49.418;8.728;2023-05-10T14:21:26;3.72;;;0.60;;
23561;SDS011;11959;49.418;8.728;2023-05-10T14:23:54;1.50;;;0.70;;
23561;SDS011;11959;49.418;8.728;2023-05-10T14:26:20;0.60;;;0.43;;
23561;SDS011;11959;49.418;8.728;2023-05-10T14:28:46;1.40;;;0.70;;
23561;SDS011;11959;49.418;8.728;2023-05-10T14:31:12;1.98;;;0.60;;
23561;SDS011;11959;49.418;8.728;2023-05-10T14:33:39;1.98;;;0.70;;
23561;SDS011;11959;49.418;8.728;2023-05-10T14:36:06;1.50;;;0.50;;
23561;SDS011;11959;49.418;8.728;2023-05-10T14:38:32;2.40;;;0.60;;
23561;SDS011;11959;49.418;8.728;2023-05-10T14:40:57;3.75;;;0.60;;
23561;SDS011;11959;49.418;8.728;2023-05-10T14:43:23;2.85;;;0.47;;
23561;SDS011;11959;49.418;8.728;2023-05-10T14:45:49;1.55;;;0.60;;
23561;SDS011;11959;49.418;8.728;2023-05-10T14:48:14;1.00;;;0.30;;
23561;SDS011;11959;49.418;8.728;2023-05-10T14:50:42;1.48;;;0.52;;
23561;SDS011;11959;49.418;8.728;2023-05-10T14:53:08;1.85;;;0.60;;
23561;SDS011;11959;49.418;8.728;2023-05-10T14:55:34;2.75;;;0.85;;
23561;SDS011;11959;49.418;8.728;2023-05-10T14:58:02;1.48;;;0.65;;
23561;SDS011;11959;49.418;8.728;2023-05-10T15:00:29;2.88;;;0.50;;
23561;SDS011;11959;49.418;8.728;2023-05-10T15:02:55;1.85;;;0.50;;
23561;SDS011;11959;49.418;8.728;2023-05-10T15:05:21;2.15;;;0.60;;
23561;SDS011;11959;49.418;8.728;2023-05-10T15:07:47;2.10;;;0.68;;
23561;SDS011;11959;49.418;8.728;2023-05-10T15:10:13;2.67;;;0.52;;
23561;SDS011;11959;49.418;8.728;2023-05-10T15:12:39;1.42;;;0.60;;
23561;SDS011;11959;49.418;8.728;2023-05-10T15:15:05;0.85;;;0.55;;
23561;SDS011;11959;49.418;8.728;2023-05-10T15:17:31;1.38;;;0.73;;
23561;SDS011;11959;49.418;8.728;2023-05-10T15:19:57;2.97;;;0.65;;
23561;SDS011;11959;49.418;8.728;2023-05-10T15:22:23;1.08;;;0.50;;
23561;SDS011;11959;49.418;8.728;2023-05-10T15:24:49;2.47;;;0.70;;